Time;durP1;ratioP1;P1;durP2;ratioP2;P2;SDS_P1;SDS_P2;PMS_P1;PMS_P2;Temp;Humidity;BMP_temperature;BMP_pressure;BME280_temperature;BME280_humidity;BME280_pressure;Samples;Min_cycle;Max_cycle;Signal;HPM_P1;HPM_P2
2022/05/12 00:00:39;;;;;;;10.70;5.50;;;;;;;19.03;46.35;98715.59;232621;1222;139102;-61
2022/05/12 00:05:43;;;;;;;7.70;5.40;;;;;;;18.99;46.41;98716.73;232386;1224;139279;-61
2022/05/12 00:10:46;;;;;;;11.00;5.40;;;;;;;18.92;46.68;98714.38;232345;1223;138844;-60
2022/05/12 00:15:49;;;;;;;9.30;5.80;;;;;;;18.86;46.81;98708.47;232456;1224;139495;-61
2022/05/12 00:20:54;;;;;;;8.20;5.60;;;;;;;18.79;47.36;98702.23;232935;1222;139081;-60
2022/05/12 00:25:57;;;;;;;9.20;5.30;;;;;;;18.75;47.35;98701.56;232735;1222;138978;-61
2022/05/12 00:31:00;;;;;;;8.40;5.90;;;;;;;18.70;47.59;98693.42;232400;1224;139121;-61
2022/05/12 00:36:03;;;;;;;11.20;5.40;;;;;;;18.64;47.98;98696.92;232282;1224;139405;-61
2022/05/12 00:41:07;;;;;;;11.80;5.50;;;;;;;18.60;47.97;98696.08;232289;1224;138758;-62
2022/05/12 00:46:20;;;;;;;8.70;5.30;;;;;;;18.57;47.98;98694.16;232392;1223;140820;-60
2022/05/12 00:51:33;;;;;;;9.30;5.70;;;;;;;18.55;48.28;98697.27;232988;1224;138700;-60
2022/05/12 00:56:37;;;;;;;10.30;6.10;;;;;;;18.50;48.46;98693.63;232788;1224;140879;-61
2022/05/12 01:01:39;;;;;;;11.10;5.40;;;;;;;18.45;48.67;98686.75;232861;1223;138931;-61
2022/05/12 01:06:43;;;;;;;13.00;5.80;;;;;;;18.42;48.60;98690.30;232575;1223;140590;-61
2022/05/12 01:11:50;;;;;;;12.30;6.30;;;;;;;18.36;48.86;98687.27;232626;1223;138435;-60
2022/05/12 01:16:59;;;;;;;11.60;6.10;;;;;;;18.33;49.16;98688.14;232311;1224;138925;-63
2022/05/12 01:22:04;;;;;;;13.10;7.00;;;;;;;18.28;49.48;98682.73;232623;1224;139958;-60
2022/05/12 01:27:20;;;;;;;12.90;6.30;;;;;;;18.23;49.51;98682.73;232165;1224;140527;-58
2022/05/12 01:32:26;;;;;;;10.60;6.80;;;;;;;18.15;49.80;98678.96;232187;1224;139006;-59
2022/05/12 01:37:29;;;;;;;11.70;7.00;;;;;;;18.08;50.02;98676.69;232227;1223;139216;-59
2022/05/12 01:42:32;;;;;;;10.60;6.60;;;;;;;18.01;50.26;98667.80;232582;1224;139621;-59
2022/05/12 01:47:36;;;;;;;11.80;7.50;;;;;;;17.98;50.36;98671.86;232375;1223;139383;-59
2022/05/12 01:52:43;;;;;;;10.50;6.20;;;;;;;17.95;50.61;98673.06;232327;1222;140614;-59
2022/05/12 01:57:47;;;;;;;11.40;6.70;;;;;;;17.98;50.76;98671.50;232497;1223;140368;-57
2022/05/12 02:02:50;;;;;;;9.50;6.20;;;;;;;18.02;50.94;98669.33;232318;1222;140187;-59
2022/05/12 02:07:54;;;;;;;11.50;5.60;;;;;;;18.10;50.83;98666.92;232358;1223;138816;-63
2022/05/12 02:12:57;;;;;;;11.30;5.20;;;;;;;18.06;50.56;98663.85;232425;1224;138819;-62
2022/05/12 02:18:00;;;;;;;9.70;5.50;;;;;;;18.01;50.65;98662.61;232499;1224;139145;-58
2022/05/12 02:23:04;;;;;;;9.60;4.80;;;;;;;17.95;50.55;98656.53;232169;1223;138874;-58
2022/05/12 02:28:08;;;;;;;8.40;5.10;;;;;;;17.95;50.62;98658.61;232339;1223;139247;-60
2022/05/12 02:33:11;;;;;;;8.80;4.30;;;;;;;17.98;50.52;98662.70;232369;1223;139369;-60
2022/05/12 02:38:14;;;;;;;9.60;4.90;;;;;;;18.16;50.18;98659.31;232344;1224;138916;-60
2022/05/12 02:43:24;;;;;;;8.20;4.70;;;;;;;18.36;50.10;98658.40;232297;1223;139560;-60
2022/05/12 02:48:31;;;;;;;11.30;5.00;;;;;;;18.40;49.88;98657.09;232484;1223;138606;-60
2022/05/12 02:53:34;;;;;;;11.80;4.90;;;;;;;18.43;49.81;98659.98;232484;1223;139735;-59
2022/05/12 02:58:37;;;;;;;13.80;4.80;;;;;;;18.41;49.72;98651.46;232352;1223;139478;-59
2022/05/12 03:03:40;;;;;;;9.30;4.70;;;;;;;18.35;49.63;98644.52;232166;1224;139190;-60
2022/05/12 03:08:44;;;;;;;11.00;4.40;;;;;;;18.36;49.74;98655.64;232374;1223;139523;-61
2022/05/12 03:13:50;;;;;;;7.30;4.10;;;;;;;18.54;49.09;98647.81;232321;1224;138890;-62
2022/05/12 03:18:54;;;;;;;12.60;7.10;;;;;;;18.72;48.89;98644.16;232320;1221;138681;-62
2022/05/12 03:23:57;;;;;;;25.20;15.70;;;;;;;18.96;48.45;98639.71;232529;1223;139081;-59
2022/05/12 03:29:00;;;;;;;12.00;4.30;;;;;;;19.20;48.03;98646.09;232428;1222;139992;-63
2022/05/12 03:34:04;;;;;;;7.10;4.10;;;;;;;19.40;47.51;98647.05;232156;1223;140669;-61
2022/05/12 03:39:07;;;;;;;8.40;4.10;;;;;;;19.52;47.64;98645.42;232557;1223;139175;-60
2022/05/12 03:49:32;;;;;;;9.00;4.80;;;;;;;19.74;46.93;98648.98;232649;1224;139964;-59
2022/05/12 03:54:35;;;;;;;9.90;4.80;;;;;;;19.76;46.77;98647.79;232541;1223;139390;-58
2022/05/12 03:59:40;;;;;;;9.00;4.70;;;;;;;19.70;46.70;98650.34;232519;1223;138543;-59
2022/05/12 04:04:43;;;;;;;8.20;4.30;;;;;;;19.73;46.74;98645.58;232625;1223;139017;-60
2022/05/12 04:09:47;;;;;;;15.40;6.70;;;;;;;19.84;46.44;98644.22;232369;1224;141728;-59
2022/05/12 04:14:50;;;;;;;5.20;4.10;;;;;;;20.00;46.19;98647.48;232502;1223;139071;-59
2022/05/12 04:19:53;;;;;;;11.80;4.60;;;;;;;20.13;45.92;98643.97;232516;1223;138800;-59
2022/05/12 04:24:57;;;;;;;13.10;4.10;;;;;;;20.26;45.67;98645.31;232638;1223;139656;-57
2022/05/12 04:30:01;;;;;;;7.70;4.50;;;;;;;20.38;45.58;98640.56;232837;1221;138977;-60
2022/05/12 04:35:12;;;;;;;10.80;4.30;;;;;;;20.51;45.27;98642.39;232424;1224;139260;-57
2022/05/12 04:40:24;;;;;;;10.40;4.40;;;;;;;20.62;45.13;98641.02;232536;1222;139226;-60
2022/05/12 04:45:30;;;;;;;9.20;4.00;;;;;;;20.73;44.96;98637.25;232625;1223;139404;-58
2022/05/12 04:50:35;;;;;;;8.70;3.80;;;;;;;20.86;44.87;98639.77;232355;1223;139330;-60
2022/05/12 04:55:38;;;;;;;;;;;;;;;20.99;44.60;98646.23;232387;1223;138710;-61
2022/05/12 05:00:43;;;;;;;11.50;4.50;;;;;;;21.05;44.42;98646.83;232583;1223;125286;-58
2022/05/12 05:05:49;;;;;;;11.00;4.10;;;;;;;21.13;44.40;98641.84;232661;1222;138468;-59
2022/05/12 05:10:55;;;;;;;8.10;3.90;;;;;;;21.22;44.34;98635.26;232665;1222;138794;-57
2022/05/12 05:15:58;;;;;;;6.80;4.00;;;;;;;21.31;44.24;98637.41;232836;1222;140175;-57
2022/05/12 05:21:02;;;;;;;10.00;4.30;;;;;;;21.41;44.13;98638.73;232684;1222;138899;-59
2022/05/12 05:26:06;;;;;;;11.30;4.10;;;;;;;21.54;44.18;98636.90;232547;1223;139338;-58
2022/05/12 05:31:09;;;;;;;12.30;3.90;;;;;;;21.65;44.13;98634.30;232443;1223;139755;-62
2022/05/12 05:36:11;;;;;;;12.60;4.40;;;;;;;21.78;44.04;98638.81;232615;1223;138809;-63
2022/05/12 05:41:14;;;;;;;7.50;3.90;;;;;;;21.94;43.98;98638.15;232379;1223;139447;-62
2022/05/12 05:46:17;;;;;;;9.50;3.30;;;;;;;22.11;43.93;98641.16;232293;1224;139617;-60
2022/05/12 05:56:43;;;;;;;5.60;3.60;;;;;;;22.35;43.48;98645.02;232479;1223;138827;-60
2022/05/12 06:01:46;;;;;;;8.50;3.30;;;;;;;22.47;43.50;98645.42;232214;1223;138954;-58
2022/05/12 06:06:49;;;;;;;13.30;4.20;;;;;;;22.56;43.38;98635.55;232475;1223;138750;-59
2022/05/12 06:11:52;;;;;;;10.10;3.50;;;;;;;22.71;43.17;98645.45;232456;1224;139473;-60
2022/05/12 06:16:55;;;;;;;8.40;3.50;;;;;;;22.82;43.01;98649.71;232559;1223;139231;-59
2022/05/12 06:22:00;;;;;;;10.10;3.50;;;;;;;22.94;42.92;98646.03;232560;1223;138852;-58
2022/05/12 06:27:03;;;;;;;11.70;3.50;;;;;;;23.07;42.97;98645.38;232123;1223;138918;-59
2022/05/12 06:32:06;;;;;;;16.20;4.10;;;;;;;23.22;42.74;98640.30;232329;1222;139023;-59
2022/05/12 06:37:13;;;;;;;7.60;3.30;;;;;;;23.31;42.44;98640.30;232436;1221;138929;-60
2022/05/12 06:42:16;;;;;;;10.20;3.10;;;;;;;23.40;42.23;98643.20;232309;1222;139145;-60
2022/05/12 06:47:20;;;;;;;7.20;3.70;;;;;;;23.46;42.15;98637.39;232497;1223;139553;-60
2022/05/12 06:52:23;;;;;;;7.10;3.70;;;;;;;23.60;42.08;98633.27;232569;1223;141030;-62
2022/05/12 06:57:27;;;;;;;7.70;3.60;;;;;;;23.72;42.15;98633.59;232440;1223;138597;-62
2022/05/12 07:02:30;;;;;;;8.70;3.80;;;;;;;23.88;42.01;98631.00;232469;1223;139217;-62
2022/05/12 07:07:34;;;;;;;11.80;3.30;;;;;;;23.98;42.02;98613.27;232593;1222;138896;-62
2022/05/12 07:12:37;;;;;;;6.60;3.10;;;;;;;24.19;41.58;98622.96;232740;1221;140268;-60
2022/05/12 07:17:43;;;;;;;7.90;3.10;;;;;;;24.34;41.13;98633.73;232582;1222;139676;-60
2022/05/12 07:28:08;;;;;;;6.90;3.00;;;;;;;24.59;40.34;98650.68;232620;1222;138727;-59
2022/05/12 07:33:11;;;;;;;7.60;3.10;;;;;;;24.70;40.08;98638.55;232634;1222;139862;-61
2022/05/12 07:38:14;;;;;;;5.00;3.10;;;;;;;24.85;39.70;98633.63;232460;1222;139754;-59
2022/05/12 07:43:18;;;;;;;11.10;3.30;;;;;;;24.95;39.68;98615.93;232491;1222;138799;-61
2022/05/12 07:48:21;;;;;;;6.20;2.90;;;;;;;25.08;39.30;98617.77;232584;1222;139640;-60
2022/05/12 07:53:24;;;;;;;9.00;3.00;;;;;;;25.23;39.06;98617.84;232394;1223;139325;-58
2022/05/12 07:58:27;;;;;;;7.60;2.60;;;;;;;25.34;38.59;98613.14;232498;1222;139111;-57
2022/05/12 08:03:30;;;;;;;6.70;2.80;;;;;;;25.44;38.53;98607.61;232488;1222;139621;-58
2022/05/12 08:08:35;;;;;;;7.50;3.00;;;;;;;25.60;38.30;98616.27;232398;1223;139132;-60
2022/05/12 08:13:39;;;;;;;;;;;;;;;25.76;37.96;98626.10;232323;1223;138688;-59
2022/05/12 08:18:45;;;;;;;15.60;2.90;;;;;;;25.86;37.79;98624.55;232685;1222;125016;-61
2022/05/12 08:23:48;;;;;;;5.60;3.00;;;;;;;25.95;37.58;98624.86;232272;1223;139198;-59
2022/05/12 08:28:52;;;;;;;10.60;2.90;;;;;;;26.07;37.35;98622.69;232528;1221;139745;-59
2022/05/12 08:33:55;;;;;;;6.50;2.80;;;;;;;26.17;37.33;98619.79;232632;1222;138572;-62
2022/05/12 08:38:58;;;;;;;6.70;2.90;;;;;;;26.29;37.08;98621.45;232453;1223;139283;-59
2022/05/12 08:44:03;;;;;;;14.70;2.70;;;;;;;26.43;36.97;98629.55;232408;1223;138896;-61
2022/05/12 08:49:22;;;;;;;43.80;27.00;;;;;;;26.62;36.60;98641.83;232521;1222;139763;-60
2022/05/12 08:54:27;;;;;;;11.40;3.50;;;;;;;26.66;36.14;98635.06;232553;1222;139377;-61
2022/05/12 08:59:31;;;;;;;18.40;2.90;;;;;;;26.72;36.13;98645.57;232410;1222;139300;-61
2022/05/12 09:04:38;;;;;;;19.30;3.00;;;;;;;26.66;35.92;98636.81;232393;1222;139491;-61
2022/05/12 09:09:50;;;;;;;7.00;2.70;;;;;;;26.71;36.03;98632.58;232474;1222;138946;-61
2022/05/12 09:15:03;;;;;;;45.60;36.30;;;;;;;26.82;35.88;98637.97;232596;1222;138689;-59
2022/05/12 09:20:12;;;;;;;12.20;3.60;;;;;;;26.92;35.89;98640.28;232343;1222;139671;-61
2022/05/12 09:25:31;;;;;;;14.20;3.50;;;;;;;27.02;35.94;98631.59;232542;1222;138993;-62
2022/05/12 09:30:36;;;;;;;12.10;3.20;;;;;;;27.07;35.61;98645.73;232725;1222;139847;-62
2022/05/12 09:35:41;;;;;;;11.20;2.80;;;;;;;27.02;35.28;98646.55;232547;1222;139155;-62
2022/05/12 09:40:44;;;;;;;7.60;3.10;;;;;;;26.99;34.99;98650.23;232394;1223;139371;-62
2022/05/12 09:46:17;;;;;;;7.50;3.00;;;;;;;26.98;35.21;98645.91;232541;1222;139661;-59
2022/05/12 09:51:23;;;;;;;14.90;3.10;;;;;;;26.96;34.99;98656.05;232312;1221;138888;-59
2022/05/12 09:56:31;;;;;;;10.00;3.20;;;;;;;26.91;34.97;98655.83;232495;1223;138932;-59
2022/05/12 10:01:47;;;;;;;10.10;2.90;;;;;;;26.88;34.86;98653.94;232643;1222;139295;-60
2022/05/12 10:12:26;;;;;;;11.90;2.70;;;;;;;26.87;34.87;98662.92;232633;1222;139499;-58
2022/05/12 10:17:39;;;;;;;8.70;2.40;;;;;;;26.99;34.53;98666.03;232326;1223;138866;-59
2022/05/12 10:22:59;;;;;;;17.50;3.20;;;;;;;27.04;34.35;98662.05;232268;1224;141038;-59
2022/05/12 10:28:13;;;;;;;27.30;11.20;;;;;;;27.18;34.00;98666.23;232296;1222;139923;-60
2022/05/12 10:33:38;;;;;;;16.40;3.70;;;;;;;27.31;33.69;98671.31;232292;1222;139082;-60
2022/05/12 10:38:57;;;;;;;8.90;2.80;;;;;;;27.47;33.48;98669.95;232115;1222;139063;-59
2022/05/12 10:44:09;;;;;;;14.00;3.20;;;;;;;27.64;33.53;98656.15;232394;1222;139415;-59
2022/05/12 10:49:21;;;;;;;10.10;2.80;;;;;;;27.72;33.16;98652.25;232293;1222;138997;-60
2022/05/12 10:54:42;;;;;;;6.10;2.70;;;;;;;27.74;33.16;98640.48;232577;1222;139163;-60
2022/05/12 11:00:15;;;;;;;20.10;3.00;;;;;;;27.94;33.27;98657.60;232220;1222;139407;-60
2022/05/12 11:05:21;;;;;;;14.30;3.20;;;;;;;28.09;32.69;98657.59;232970;1223;139061;-60
2022/05/12 11:10:52;;;;;;;13.80;2.90;;;;;;;28.33;32.73;98653.04;232827;1223;138908;-60
2022/05/12 11:16:14;;;;;;;13.40;3.10;;;;;;;28.54;32.27;98651.42;232892;1224;138806;-59
2022/05/12 11:21:28;;;;;;;9.00;3.10;;;;;;;28.76;32.17;98650.48;232549;1224;139267;-60
2022/05/12 11:26:49;;;;;;;7.50;2.50;;;;;;;28.96;31.91;98647.41;232492;1222;138989;-61
2022/05/12 11:32:27;;;;;;;8.40;2.50;;;;;;;29.10;31.48;98660.11;232141;1222;138830;-61
2022/05/12 11:37:43;;;;;;;8.10;2.70;;;;;;;29.21;31.20;98654.18;232226;1224;138502;-60
2022/05/12 11:48:37;;;;;;;12.50;2.70;;;;;;;28.90;30.87;98658.45;232156;1223;140522;-59
2022/05/12 11:53:57;;;;;;;10.60;3.00;;;;;;;28.89;30.95;98658.34;232338;1220;139751;-61
2022/05/12 11:59:18;;;;;;;14.30;3.10;;;;;;;28.63;30.81;98666.83;232356;1222;138839;-60
2022/05/12 12:04:37;;;;;;;8.70;2.80;;;;;;;28.32;30.87;98674.27;232230;1224;139473;-60
2022/05/12 12:09:40;;;;;;;14.40;3.00;;;;;;;28.31;31.51;98684.12;232346;1222;139038;-60
2022/05/12 12:14:43;;;;;;;17.80;3.40;;;;;;;28.22;31.59;98685.39;232285;1223;139446;-60
2022/05/12 12:19:52;;;;;;;10.70;2.70;;;;;;;28.13;31.64;98689.23;232218;1222;139293;-62
2022/05/12 12:25:09;;;;;;;63.80;45.50;;;;;;;28.32;31.87;98699.30;232403;1223;139565;-60
2022/05/12 12:30:24;;;;;;;10.10;3.80;;;;;;;28.55;31.78;98685.08;232290;1223;139299;-60
2022/05/12 12:35:28;;;;;;;9.30;3.20;;;;;;;28.43;31.42;98689.21;232126;1223;138875;-60
2022/05/12 12:40:37;;;;;;;7.30;2.60;;;;;;;28.24;31.52;98694.78;232408;1222;138916;-61
2022/05/12 12:45:47;;;;;;;15.80;3.00;;;;;;;28.07;31.51;98695.36;232332;1223;139219;-62
2022/05/12 12:50:53;;;;;;;13.70;2.80;;;;;;;27.94;31.38;98695.73;232191;1222;139352;-61
2022/05/12 13:01:44;;;;;;;15.40;2.60;;;;;;;27.85;31.15;98699.55;232151;1222;139078;-62
2022/05/12 13:06:54;;;;;;;10.80;2.40;;;;;;;27.77;30.98;98713.11;232318;1223;138838;-61
2022/05/12 13:12:27;;;;;;;13.60;2.60;;;;;;;27.81;31.01;98724.64;232013;1224;139454;-62
2022/05/12 13:17:37;;;;;;;9.70;2.70;;;;;;;27.91;31.02;98715.68;232003;1224;140260;-61
2022/05/12 13:22:53;;;;;;;6.80;3.10;;;;;;;28.05;31.44;98712.23;232046;1224;139183;-60
2022/05/12 13:27:57;;;;;;;14.90;3.50;;;;;;;27.97;31.76;98713.02;232201;1224;138765;-60
2022/05/12 13:33:11;;;;;;;12.50;2.90;;;;;;;27.95;32.09;98720.51;232039;1224;138827;-62
2022/05/12 13:38:20;;;;;;;15.50;3.40;;;;;;;28.01;32.11;98721.39;232270;1223;138477;-61
2022/05/12 13:43:35;;;;;;;10.50;3.10;;;;;;;28.20;32.10;98721.87;232231;1223;139428;-61
2022/05/12 13:48:51;;;;;;;18.30;3.80;;;;;;;28.18;32.07;98727.59;232388;1222;139010;-61
2022/05/12 13:54:02;;;;;;;17.40;3.10;;;;;;;28.26;31.95;98725.20;232423;1222;140021;-62
2022/05/12 13:59:30;;;;;;;14.70;3.20;;;;;;;28.40;32.08;98726.04;232601;1223;139201;-61
2022/05/12 14:04:35;;;;;;;7.60;3.00;;;;;;;28.54;31.77;98724.69;232539;1223;139051;-61
2022/05/12 14:09:57;;;;;;;;;;;;;;;28.62;31.95;98735.92;232618;1222;138880;-62
2022/05/12 14:20:43;;;;;;;10.70;3.10;;;;;;;28.40;31.70;98740.15;232611;1223;141247;-61
2022/05/12 14:25:46;;;;;;;9.80;2.90;;;;;;;28.13;31.78;98748.61;232622;1223;138884;-62
2022/05/12 14:30:49;;;;;;;21.20;7.80;;;;;;;28.00;31.94;98752.27;232722;1223;140451;-62
2022/05/12 14:35:54;;;;;;;17.20;3.30;;;;;;;27.93;31.96;98763.41;232640;1222;143380;-61
2022/05/12 14:40:57;;;;;;;10.80;2.70;;;;;;;27.95;31.94;98767.86;232476;1222;139190;-62
2022/05/12 14:46:00;;;;;;;24.10;3.30;;;;;;;27.93;31.90;98772.95;232613;1222;139691;-63
2022/05/12 14:51:05;;;;;;;11.70;2.40;;;;;;;27.81;31.88;98773.55;232652;1222;140849;-63
2022/05/12 14:56:08;;;;;;;12.80;2.20;;;;;;;27.67;31.92;98772.05;232598;1223;138657;-61
2022/05/12 15:01:11;;;;;;;16.30;4.00;;;;;;;27.53;31.82;98773.82;232853;1222;139011;-63
2022/05/12 15:06:15;;;;;;;22.00;8.30;;;;;;;27.37;31.84;98783.70;232596;1223;138583;-62
2022/05/12 15:11:19;;;;;;;12.50;2.60;;;;;;;27.29;31.81;98784.56;232653;1224;138344;-61
2022/05/12 15:16:29;;;;;;;6.90;2.40;;;;;;;27.28;32.17;98791.47;232558;1223;140212;-61
2022/05/12 15:21:32;;;;;;;13.80;2.40;;;;;;;27.27;32.01;98796.15;232388;1223;138852;-62
2022/05/12 15:26:39;;;;;;;10.30;2.20;;;;;;;27.21;32.01;98805.89;232502;1223;139239;-60
2022/05/12 15:31:43;;;;;;;10.10;2.10;;;;;;;27.11;31.84;98808.80;232394;1223;141780;-60
2022/05/12 15:36:46;;;;;;;17.10;6.70;;;;;;;27.04;31.96;98817.00;232698;1224;139543;-62
2022/05/12 15:41:52;;;;;;;7.60;2.30;;;;;;;26.98;31.82;98817.20;232447;1224;140229;-60
2022/05/12 15:46:59;;;;;;;12.50;2.90;;;;;;;26.86;31.77;98810.48;232294;1224;139253;-61
2022/05/12 15:52:06;;;;;;;12.70;2.40;;;;;;;26.73;31.94;98816.15;232342;1223;139074;-60
2022/05/12 15:57:09;;;;;;;11.40;2.00;;;;;;;26.66;31.95;98816.59;232040;1224;139240;-60
2022/05/12 16:02:18;;;;;;;7.80;2.30;;;;;;;26.57;32.01;98815.63;232200;1224;139399;-57
2022/05/12 16:07:21;;;;;;;12.20;1.90;;;;;;;26.57;32.07;98814.27;232101;1224;139199;-62
2022/05/12 16:18:01;;;;;;;10.10;1.90;;;;;;;26.38;31.79;98815.42;232286;1223;140457;-60
2022/05/12 16:23:04;;;;;;;6.20;2.50;;;;;;;26.25;31.77;98812.98;232512;1223;139289;-62
2022/05/12 16:28:11;;;;;;;10.00;2.00;;;;;;;26.16;32.02;98815.48;232385;1223;138475;-60
2022/05/12 16:33:15;;;;;;;8.60;1.80;;;;;;;26.14;31.87;98818.95;232396;1223;139057;-59
2022/05/12 16:38:18;;;;;;;8.70;2.00;;;;;;;26.08;32.07;98825.75;232168;1223;138889;-61
2022/05/12 16:43:22;;;;;;;68.30;27.70;;;;;;;26.05;32.04;98824.09;232322;1223;139307;-61
2022/05/12 16:48:25;;;;;;;10.00;2.70;;;;;;;26.02;31.98;98832.16;232649;1222;139059;-61
2022/05/12 16:53:31;;;;;;;8.40;2.10;;;;;;;25.97;32.00;98837.46;232485;1222;138789;-61
2022/05/12 16:58:35;;;;;;;11.30;1.80;;;;;;;25.95;32.08;98840.67;232275;1223;138556;-60
2022/05/12 17:03:38;;;;;;;6.40;1.50;;;;;;;25.95;31.95;98846.89;232341;1222;139460;-62
2022/05/12 17:08:41;;;;;;;6.20;2.00;;;;;;;25.90;31.70;98844.77;232094;1224;138898;-61
2022/05/12 17:13:44;;;;;;;7.70;1.80;;;;;;;25.82;31.72;98855.14;232367;1223;138691;-60
2022/05/12 17:18:47;;;;;;;5.40;1.40;;;;;;;25.70;31.68;98857.15;232600;1222;139103;-59
2022/05/12 17:23:52;;;;;;;4.30;1.30;;;;;;;25.65;31.92;98874.51;232528;1223;138925;-61
2022/05/12 17:28:56;;;;;;;6.30;1.70;;;;;;;25.61;31.94;98873.45;232365;1223;138456;-60
2022/05/12 17:33:59;;;;;;;63.60;32.00;;;;;;;25.54;31.75;98883.52;232337;1223;140031;-61
2022/05/12 17:39:03;;;;;;;13.90;6.90;;;;;;;25.52;31.81;98894.18;232374;1221;141885;-61
2022/05/12 17:44:08;;;;;;;7.40;2.60;;;;;;;25.47;31.82;98897.56;232378;1223;138714;-62
2022/05/12 17:49:12;;;;;;;11.30;2.30;;;;;;;25.40;31.77;98902.32;232191;1223;139176;-62
2022/05/12 17:54:15;;;;;;;18.10;2.50;;;;;;;25.37;31.97;98912.14;232228;1223;138772;-62
2022/05/12 17:59:18;;;;;;;10.30;2.40;;;;;;;25.32;31.96;98917.08;232405;1223;139373;-62
2022/05/12 18:04:21;;;;;;;10.40;2.30;;;;;;;25.25;31.95;98926.09;232266;1223;139657;-63
2022/05/12 18:09:25;;;;;;;9.70;2.10;;;;;;;25.23;32.08;98928.52;232121;1222;138830;-63
2022/05/12 18:14:29;;;;;;;11.20;2.10;;;;;;;25.15;31.98;98939.38;232364;1224;139531;-62
2022/05/12 18:19:32;;;;;;;9.70;2.40;;;;;;;25.07;32.12;98943.44;232230;1223;139457;-64
2022/05/12 18:24:36;;;;;;;64.10;39.60;;;;;;;24.94;32.06;98946.63;232428;1223;138461;-61
2022/05/12 18:29:43;;;;;;;17.50;4.40;;;;;;;24.87;32.11;98961.95;232283;1223;139258;-62
2022/05/12 18:34:46;;;;;;;13.10;2.30;;;;;;;24.75;32.14;98955.09;232407;1223;138929;-62
2022/05/12 18:39:50;;;;;;;11.40;2.70;;;;;;;24.62;32.45;98966.88;232389;1223;139441;-62
2022/05/12 18:44:53;;;;;;;11.90;2.10;;;;;;;24.48;32.74;98971.83;232367;1223;139456;-61
2022/05/12 18:49:56;;;;;;;7.60;1.80;;;;;;;24.33;32.75;98981.99;232427;1223;138843;-62
2022/05/12 18:54:59;;;;;;;11.10;1.80;;;;;;;24.15;32.90;98991.90;232483;1223;140520;-62
2022/05/12 19:00:05;;;;;;;9.50;1.90;;;;;;;24.05;33.04;99004.91;232362;1223;138895;-62
2022/05/12 19:05:18;;;;;;;7.40;1.90;;;;;;;23.90;32.95;99005.67;232396;1223;139977;-62
2022/05/12 19:10:23;;;;;;;8.00;1.90;;;;;;;23.73;33.34;99010.88;232269;1223;141844;-62
2022/05/12 19:15:29;;;;;;;6.90;1.50;;;;;;;23.59;33.65;99009.65;232323;1223;139482;-62
2022/05/12 19:20:40;;;;;;;11.00;2.20;;;;;;;23.52;33.49;99013.34;232127;1223;138848;-62
2022/05/12 19:25:46;;;;;;;163.10;129.30;;;;;;;23.39;33.46;99014.78;232428;1223;139400;-62
2022/05/12 19:30:51;;;;;;;15.80;5.30;;;;;;;23.36;33.52;99032.16;232636;1222;140973;-61
2022/05/12 19:35:56;;;;;;;14.80;2.40;;;;;;;23.20;33.03;99029.64;232505;1223;139481;-61
2022/05/12 19:40:59;;;;;;;10.90;2.00;;;;;;;23.02;33.04;99037.20;232483;1222;138777;-62
2022/05/12 19:46:02;;;;;;;10.20;2.20;;;;;;;22.81;33.04;99041.72;232530;1222;139472;-61
2022/05/12 19:51:05;;;;;;;12.80;2.00;;;;;;;22.62;33.09;99050.58;232258;1222;139558;-61
2022/05/12 19:56:08;;;;;;;14.40;2.10;;;;;;;22.44;33.04;99050.20;232444;1223;139652;-61
2022/05/12 20:01:12;;;;;;;10.60;2.20;;;;;;;22.32;33.17;99059.19;232471;1222;138849;-62
2022/05/12 20:06:17;;;;;;;12.80;2.50;;;;;;;22.16;33.26;99063.40;232427;1223;139976;-62
2022/05/12 20:11:20;;;;;;;12.40;2.30;;;;;;;22.05;33.44;99065.35;232691;1223;139130;-60
2022/05/12 20:16:28;;;;;;;13.30;2.20;;;;;;;21.90;33.58;99060.64;232760;1223;139676;-61
2022/05/12 20:21:31;;;;;;;10.80;2.20;;;;;;;21.75;33.66;99061.02;232531;1223;140530;-61
2022/05/12 20:26:36;;;;;;;8.50;2.50;;;;;;;21.57;33.83;99064.77;232535;1221;139630;-62
2022/05/12 20:31:41;;;;;;;14.70;2.60;;;;;;;21.43;34.10;99080.70;232430;1221;139618;-62
2022/05/12 20:36:45;;;;;;;12.80;2.50;;;;;;;21.31;34.25;99085.77;232672;1222;139362;-61
2022/05/12 20:41:48;;;;;;;10.70;3.00;;;;;;;21.21;34.51;99082.48;232555;1222;139091;-62
2022/05/12 20:46:51;;;;;;;14.10;3.00;;;;;;;21.13;34.58;99079.69;232335;1223;138968;-61
2022/05/12 20:51:55;;;;;;;10.20;2.10;;;;;;;21.09;34.52;99086.81;232492;1223;138653;-62
2022/05/12 20:56:58;;;;;;;8.60;2.70;;;;;;;21.00;34.60;99093.09;232540;1223;141506;-62
2022/05/12 21:02:01;;;;;;;9.60;2.30;;;;;;;20.96;34.39;99103.55;232440;1222;139342;-63
2022/05/12 21:07:05;;;;;;;10.20;2.60;;;;;;;20.95;34.14;99105.58;232577;1222;138968;-62
2022/05/12 21:12:08;;;;;;;7.50;2.40;;;;;;;20.95;34.42;99106.65;232599;1222;138861;-62
2022/05/12 21:17:11;;;;;;;11.50;2.30;;;;;;;20.89;34.76;99103.30;232568;1222;139932;-61
2022/05/12 21:22:14;;;;;;;11.50;2.50;;;;;;;20.78;34.81;99110.91;232528;1222;139530;-61
2022/05/12 21:27:17;;;;;;;9.00;2.70;;;;;;;20.64;34.97;99107.52;232632;1223;139618;-60
2022/05/12 21:32:20;;;;;;;15.50;2.70;;;;;;;20.52;35.12;99119.55;232530;1222;138958;-60
2022/05/12 21:37:26;;;;;;;12.80;2.50;;;;;;;20.39;35.36;99119.25;232398;1222;139310;-62
2022/05/12 21:42:29;;;;;;;14.60;2.60;;;;;;;20.31;35.72;99125.64;232481;1224;139252;-60
2022/05/12 21:47:33;;;;;;;24.60;3.70;;;;;;;20.20;36.09;99126.20;232074;1223;142539;-61
2022/05/12 21:52:37;;;;;;;14.90;3.10;;;;;;;20.15;36.25;99129.47;232298;1223;139514;-62
2022/05/12 22:03:01;;;;;;;16.30;3.00;;;;;;;20.08;36.91;99135.18;232200;1223;138918;-64
2022/05/12 22:08:05;;;;;;;9.60;2.50;;;;;;;20.00;36.90;99129.30;232400;1222;140066;-59
2022/05/12 22:13:09;;;;;;;9.40;2.60;;;;;;;19.90;37.34;99129.89;232548;1222;138699;-61
2022/05/12 22:18:12;;;;;;;12.10;2.70;;;;;;;19.82;37.54;99128.55;232559;1222;138816;-61
2022/05/12 22:23:16;;;;;;;9.40;2.70;;;;;;;19.73;37.68;99124.08;232507;1222;138930;-60
2022/05/12 22:28:19;;;;;;;10.60;2.70;;;;;;;19.64;37.91;99127.56;232631;1222;139021;-61
2022/05/12 22:33:22;;;;;;;10.30;2.90;;;;;;;19.57;38.41;99129.55;232419;1222;138960;-61
2022/05/12 22:38:25;;;;;;;21.40;3.60;;;;;;;19.50;38.57;99117.48;232665;1223;138821;-61
2022/05/12 22:43:30;;;;;;;16.10;3.20;;;;;;;19.45;38.72;99125.69;232431;1224;139113;-61
2022/05/12 22:48:33;;;;;;;16.20;3.00;;;;;;;19.40;38.89;99130.47;232753;1222;141824;-61
2022/05/12 22:53:36;;;;;;;19.00;3.30;;;;;;;19.36;38.97;99139.83;232485;1223;139245;-60
2022/05/12 22:58:41;;;;;;;22.20;3.30;;;;;;;19.30;38.86;99140.41;232604;1222;139305;-61
2022/05/12 23:03:44;;;;;;;12.90;3.30;;;;;;;19.24;39.22;99134.70;231837;1223;138871;-60
2022/05/12 23:08:47;;;;;;;9.90;3.00;;;;;;;19.18;39.38;99144.30;232463;1223;140441;-61
2022/05/12 23:13:51;;;;;;;9.20;3.20;;;;;;;19.15;39.75;99160.42;232541;1222;138565;-59
2022/05/12 23:24:16;;;;;;;11.10;3.20;;;;;;;19.01;40.48;99143.44;232364;1221;138675;-60
2022/05/12 23:29:19;;;;;;;11.20;3.20;;;;;;;18.91;40.56;99145.05;232476;1222;139083;-61
2022/05/12 23:34:24;;;;;;;11.90;3.50;;;;;;;18.78;40.67;99138.36;232551;1222;138967;-61
2022/05/12 23:39:27;;;;;;;11.50;2.90;;;;;;;18.69;41.00;99138.88;232451;1223;139708;-59
2022/05/12 23:44:30;;;;;;;17.00;3.20;;;;;;;18.62;41.38;99136.06;232662;1223;140226;-59
2022/05/12 23:49:37;;;;;;;21.50;4.30;;;;;;;18.58;41.47;99144.42;232563;1223;138369;-60
2022/05/12 23:54:41;;;;;;;12.80;3.40;;;;;;;18.54;41.25;99143.50;232461;1222;138854;-60
2022/05/12 23:59:44;;;;;;;11.90;3.40;;;;;;;18.47;41.54;99149.94;232587;1222;138579;-59
